sensor_id;sensor_type;location;lat;lon;timestamp;pressure;altitude;pressure_sealevel;temperature;humidity
42067;BME280;27734;47.028;28.820;2023-02-10T00:02:16;102730.92;;;-7.28;58.06
42067;BME280;27734;47.028;28.820;2023-02-10T00:04:49;102744.20;;;-7.30;58.50
42067;BME280;27734;47.028;28.820;2023-02-10T00:07:24;102737.27;;;-7.37;58.14
42067;BME280;27734;47.028;28.820;2023-02-10T00:09:56;102738.25;;;-7.42;57.38
42067;BME280;27734;47.028;28.820;2023-02-10T00:12:28;102736.25;;;-7.50;57.40
42067;BME280;27734;47.028;28.820;2023-02-10T00:15:00;102734.89;;;-7.54;58.66
42067;BME280;27734;47.028;28.820;2023-02-10T00:17:33;102730.70;;;-7.53;58.56
42067;BME280;27734;47.028;28.820;2023-02-10T00:20:06;102725.61;;;-7.53;58.99
42067;BME280;27734;47.028;28.820;2023-02-10T00:22:38;102722.80;;;-7.49;57.55
42067;BME280;27734;47.028;28.820;2023-02-10T00:25:11;102723.94;;;-7.47;59.04
42067;BME280;27734;47.028;28.820;2023-02-10T00:27:43;102720.72;;;-7.52;58.35
42067;BME280;27734;47.028;28.820;2023-02-10T00:30:16;102726.59;;;-7.59;59.24
42067;BME280;27734;47.028;28.820;2023-02-10T00:32:48;102726.17;;;-7.67;57.63
42067;BME280;27734;47.028;28.820;2023-02-10T00:35:24;102710.98;;;-7.79;58.51
42067;BME280;27734;47.028;28.820;2023-02-10T00:37:56;102714.24;;;-7.85;58.03
42067;BME280;27734;47.028;28.820;2023-02-10T00:40:28;102721.51;;;-7.94;58.81
42067;BME280;27734;47.028;28.820;2023-02-10T00:43:01;102712.53;;;-8.03;58.40
42067;BME280;27734;47.028;28.820;2023-02-10T00:45:33;102710.00;;;-8.09;58.03
42067;BME280;27734;47.028;28.820;2023-02-10T00:48:06;102699.15;;;-8.14;57.96
42067;BME280;27734;47.028;28.820;2023-02-10T00:50:38;102706.56;;;-8.15;59.14
42067;BME280;27734;47.028;28.820;2023-02-10T00:53:10;102707.29;;;-8.16;58.75
42067;BME280;27734;47.028;28.820;2023-02-10T00:55:42;102695.47;;;-8.16;57.89
42067;BME280;27734;47.028;28.820;2023-02-10T00:58:15;102689.70;;;-8.20;58.74
42067;BME280;27734;47.028;28.820;2023-02-10T01:00:48;102687.63;;;-8.23;59.21
42067;BME280;27734;47.028;28.820;2023-02-10T01:03:20;102680.70;;;-8.24;58.70
42067;BME280;27734;47.028;28.820;2023-02-10T01:05:52;102677.21;;;-8.24;59.41
42067;BME280;27734;47.028;28.820;2023-02-10T01:08:25;102684.16;;;-8.23;58.63
42067;BME280;27734;47.028;28.820;2023-02-10T01:11:03;102680.03;;;-8.28;59.25
42067;BME280;27734;47.028;28.820;2023-02-10T01:13:36;102674.96;;;-8.34;58.68
42067;BME280;27734;47.028;28.820;2023-02-10T01:16:12;102667.55;;;-8.33;58.75
42067;BME280;27734;47.028;28.820;2023-02-10T01:18:44;102666.58;;;-8.27;59.63
42067;BME280;27734;47.028;28.820;2023-02-10T01:21:18;102667.97;;;-8.24;58.15
42067;BME280;27734;47.028;28.820;2023-02-10T01:23:51;102672.31;;;-8.17;59.17
42067;BME280;27734;47.028;28.820;2023-02-10T01:26:23;102669.77;;;-8.17;59.99
42067;BME280;27734;47.028;28.820;2023-02-10T01:28:56;102659.58;;;-8.17;59.38
42067;BME280;27734;47.028;28.820;2023-02-10T01:31:28;102665.59;;;-8.17;58.95
42067;BME280;27734;47.028;28.820;2023-02-10T01:34:01;102657.28;;;-8.21;58.66
42067;BME280;27734;47.028;28.820;2023-02-10T01:36:33;102660.55;;;-8.22;59.04
42067;BME280;27734;47.028;28.820;2023-02-10T01:39:05;102661.70;;;-8.26;58.82
42067;BME280;27734;47.028;28.820;2023-02-10T01:41:38;102662.20;;;-8.28;60.04
42067;BME280;27734;47.028;28.820;2023-02-10T01:47:14;102660.42;;;-8.41;59.58
42067;BME280;27734;47.028;28.820;2023-02-10T01:49:48;102658.44;;;-8.49;59.85
42067;BME280;27734;47.028;28.820;2023-02-10T01:52:23;102658.90;;;-8.52;58.97
42067;BME280;27734;47.028;28.820;2023-02-10T01:55:02;102656.38;;;-8.57;60.03
42067;BME280;27734;47.028;28.820;2023-02-10T01:57:36;102655.92;;;-8.60;60.04
42067;BME280;27734;47.028;28.820;2023-02-10T02:00:12;102654.77;;;-8.57;58.80
42067;BME280;27734;47.028;28.820;2023-02-10T02:02:45;102658.45;;;-8.55;59.22
42067;BME280;27734;47.028;28.820;2023-02-10T02:05:27;102661.23;;;-8.59;59.49
42067;BME280;27734;47.028;28.820;2023-02-10T02:08:04;102655.97;;;-8.66;59.31
42067;BME280;27734;47.028;28.820;2023-02-10T02:10:47;102643.70;;;-8.69;60.47
42067;BME280;27734;47.028;28.820;2023-02-10T02:13:27;102642.80;;;-8.69;59.35
42067;BME280;27734;47.028;28.820;2023-02-10T02:16:07;102638.38;;;-8.64;58.93
42067;BME280;27734;47.028;28.820;2023-02-10T02:18:45;102639.05;;;-8.60;59.83
42067;BME280;27734;47.028;28.820;2023-02-10T02:22:07;102641.81;;;-8.58;60.27
42067;BME280;27734;47.028;28.820;2023-02-10T02:25:02;102639.29;;;-8.64;59.26
42067;BME280;27734;47.028;28.820;2023-02-10T02:27:59;102642.80;;;-8.69;59.07
42067;BME280;27734;47.028;28.820;2023-02-10T02:30:52;102642.57;;;-8.71;59.67
42067;BME280;27734;47.028;28.820;2023-02-10T02:33:30;102639.06;;;-8.65;59.63
42067;BME280;27734;47.028;28.820;2023-02-10T02:36:09;102650.61;;;-8.62;59.66
42067;BME280;27734;47.028;28.820;2023-02-10T02:38:43;102646.25;;;-8.69;59.83
42067;BME280;27734;47.028;28.820;2023-02-10T02:41:23;102645.81;;;-8.77;60.18
42067;BME280;27734;47.028;28.820;2023-02-10T02:43:56;102642.87;;;-8.86;59.55
42067;BME280;27734;47.028;28.820;2023-02-10T02:46:38;102643.79;;;-8.91;59.64
42067;BME280;27734;47.028;28.820;2023-02-10T02:49:21;102639.20;;;-8.94;59.49
42067;BME280;27734;47.028;28.820;2023-02-10T02:52:07;102635.70;;;-8.94;59.04
42067;BME280;27734;47.028;28.820;2023-02-10T02:54:47;102631.34;;;-8.95;59.52
42067;BME280;27734;47.028;28.820;2023-02-10T02:57:26;102629.48;;;-8.96;59.17
42067;BME280;27734;47.028;28.820;2023-02-10T03:00:05;102630.20;;;-8.97;59.44
42067;BME280;27734;47.028;28.820;2023-02-10T03:02:38;102633.43;;;-8.98;59.56
42067;BME280;27734;47.028;28.820;2023-02-10T03:05:19;102628.12;;;-9.06;60.68
42067;BME280;27734;47.028;28.820;2023-02-10T03:07:52;102637.89;;;-9.14;59.66
42067;BME280;27734;47.028;28.820;2023-02-10T03:10:25;102627.95;;;-9.24;61.04
42067;BME280;27734;47.028;28.820;2023-02-10T03:12:57;102625.45;;;-9.30;60.18
42067;BME280;27734;47.028;28.820;2023-02-10T03:15:29;102635.16;;;-9.33;60.60
42067;BME280;27734;47.028;28.820;2023-02-10T03:18:02;102635.16;;;-9.38;60.48
42067;BME280;27734;47.028;28.820;2023-02-10T03:20:34;102639.56;;;-9.43;60.06
42067;BME280;27734;47.028;28.820;2023-02-10T03:23:06;102637.73;;;-9.50;59.77
42067;BME280;27734;47.028;28.820;2023-02-10T03:25:39;102635.42;;;-9.54;59.80
42067;BME280;27734;47.028;28.820;2023-02-10T03:28:11;102638.45;;;-9.56;60.50
42067;BME280;27734;47.028;28.820;2023-02-10T03:30:44;102632.42;;;-9.57;60.84
42067;BME280;27734;47.028;28.820;2023-02-10T03:33:16;102632.42;;;-9.57;60.51
42067;BME280;27734;47.028;28.820;2023-02-10T03:35:48;102630.11;;;-9.55;60.26
42067;BME280;27734;47.028;28.820;2023-02-10T03:38:20;102628.50;;;-9.61;59.95
42067;BME280;27734;47.028;28.820;2023-02-10T03:40:53;102623.88;;;-9.63;59.79
42067;BME280;27734;47.028;28.820;2023-02-10T03:43:26;102626.20;;;-9.59;60.78
42067;BME280;27734;47.028;28.820;2023-02-10T03:46:00;102625.02;;;-9.55;60.41
42067;BME280;27734;47.028;28.820;2023-02-10T03:48:33;102623.17;;;-9.51;60.08
42067;BME280;27734;47.028;28.820;2023-02-10T03:51:07;102625.02;;;-9.50;59.92
42067;BME280;27734;47.028;28.820;2023-02-10T03:53:40;102624.56;;;-9.53;60.88
42067;BME280;27734;47.028;28.820;2023-02-10T03:56:12;102621.56;;;-9.56;60.57
42067;BME280;27734;47.028;28.820;2023-02-10T03:58:44;102617.63;;;-9.54;59.93
42067;BME280;27734;47.028;28.820;2023-02-10T04:01:17;102621.34;;;-9.52;61.13
42067;BME280;27734;47.028;28.820;2023-02-10T04:03:49;102623.66;;;-9.53;60.38
42067;BME280;27734;47.028;28.820;2023-02-10T04:06:21;102611.17;;;-9.52;60.95
42067;BME280;27734;47.028;28.820;2023-02-10T04:08:54;102609.77;;;-9.50;61.27
42067;BME280;27734;47.028;28.820;2023-02-10T04:11:26;102606.55;;;-9.49;61.03
42067;BME280;27734;47.028;28.820;2023-02-10T04:13:58;102605.60;;;-9.49;59.89
42067;BME280;27734;47.028;28.820;2023-02-10T04:16:30;102600.74;;;-9.48;60.88
42067;BME280;27734;47.028;28.820;2023-02-10T04:19:04;102595.43;;;-9.44;61.25
42067;BME280;27734;47.028;28.820;2023-02-10T04:21:36;102591.25;;;-9.37;60.49
42067;BME280;27734;47.028;28.820;2023-02-10T04:24:08;102587.99;;;-9.36;61.23
42067;BME280;27734;47.028;28.820;2023-02-10T04:26:41;102594.94;;;-9.35;60.86
42067;BME280;27734;47.028;28.820;2023-02-10T04:29:13;102594.94;;;-9.35;60.54
42067;BME280;27734;47.028;28.820;2023-02-10T04:31:45;102596.30;;;-9.32;61.39
42067;BME280;27734;47.028;28.820;2023-02-10T04:34:17;102593.08;;;-9.31;61.31
42067;BME280;27734;47.028;28.820;2023-02-10T04:36:49;102594.48;;;-9.33;60.43
42067;BME280;27734;47.028;28.820;2023-02-10T04:39:22;102592.63;;;-9.34;61.36
42067;BME280;27734;47.028;28.820;2023-02-10T04:41:54;102597.70;;;-9.34;60.53
42067;BME280;27734;47.028;28.820;2023-02-10T04:44:26;102605.11;;;-9.35;61.45
42067;BME280;27734;47.028;28.820;2023-02-10T04:46:58;102596.34;;;-9.37;61.61
42067;BME280;27734;47.028;28.820;2023-02-10T04:49:31;102596.34;;;-9.37;61.66
42067;BME280;27734;47.028;28.820;2023-02-10T04:52:03;102605.34;;;-9.40;61.27
42067;BME280;27734;47.028;28.820;2023-02-10T04:54:35;102596.57;;;-9.42;60.92
42067;BME280;27734;47.028;28.820;2023-02-10T04:57:08;102601.66;;;-9.42;61.54
42067;BME280;27734;47.028;28.820;2023-02-10T04:59:40;102606.05;;;-9.41;61.58
42067;BME280;27734;47.028;28.820;2023-02-10T05:02:12;102602.56;;;-9.41;60.99
42067;BME280;27734;47.028;28.820;2023-02-10T05:04:44;102597.48;;;-9.41;61.25
42067;BME280;27734;47.028;28.820;2023-02-10T05:07:16;102607.42;;;-9.43;60.99
42067;BME280;27734;47.028;28.820;2023-02-10T05:09:49;102603.52;;;-9.41;61.59
42067;BME280;27734;47.028;28.820;2023-02-10T05:12:21;102601.66;;;-9.42;61.87
42067;BME280;27734;47.028;28.820;2023-02-10T05:14:53;102599.34;;;-9.40;61.41
42067;BME280;27734;47.028;28.820;2023-02-10T05:17:25;102600.97;;;-9.41;61.44
42067;BME280;27734;47.028;28.820;2023-02-10T05:19:58;102611.59;;;-9.43;61.27
42067;BME280;27734;47.028;28.820;2023-02-10T05:22:30;102607.65;;;-9.41;60.99
42067;BME280;27734;47.028;28.820;2023-02-10T05:25:02;102611.14;;;-9.46;62.08
42067;BME280;27734;47.028;28.820;2023-02-10T05:27:35;102605.14;;;-9.47;61.88
42067;BME280;27734;47.028;28.820;2023-02-10T05:30:09;102602.38;;;-9.48;62.12
42067;BME280;27734;47.028;28.820;2023-02-10T05:32:44;102613.00;;;-9.51;62.16
42067;BME280;27734;47.028;28.820;2023-02-10T05:35:16;102614.40;;;-9.53;62.12
42067;BME280;27734;47.028;28.820;2023-02-10T05:37:48;102611.62;;;-9.54;62.46
42067;BME280;27734;47.028;28.820;2023-02-10T05:40:21;102614.85;;;-9.55;62.59
42067;BME280;27734;47.028;28.820;2023-02-10T05:42:54;102611.17;;;-9.52;62.41
42067;BME280;27734;47.028;28.820;2023-02-10T05:45:26;102608.83;;;-9.45;61.58
42067;BME280;27734;47.028;28.820;2023-02-10T05:47:59;102618.50;;;-9.36;62.33
42067;BME280;27734;47.028;28.820;2023-02-10T05:50:31;102619.64;;;-9.29;62.90
42067;BME280;27734;47.028;28.820;2023-02-10T05:53:03;102610.38;;;-9.23;61.35
42067;BME280;27734;47.028;28.820;2023-02-10T05:55:36;102613.37;;;-9.14;61.52
42067;BME280;27734;47.028;28.820;2023-02-10T05:58:08;102613.81;;;-9.11;61.48
42067;BME280;27734;47.028;28.820;2023-02-10T06:00:43;102619.34;;;-9.02;62.38
42067;BME280;27734;47.028;28.820;2023-02-10T06:03:15;102618.12;;;-8.93;62.65
42067;BME280;27734;47.028;28.820;2023-02-10T06:05:48;102615.10;;;-8.84;62.59
42067;BME280;27734;47.028;28.820;2023-02-10T06:08:20;102614.57;;;-8.71;63.31
42067;BME280;27734;47.028;28.820;2023-02-10T06:10:52;102616.58;;;-8.57;63.13
42067;BME280;27734;47.028;28.820;2023-02-10T06:13:25;102601.45;;;-8.44;63.39
42067;BME280;27734;47.028;28.820;2023-02-10T06:15:57;102609.19;;;-8.31;62.40
42067;BME280;27734;47.028;28.820;2023-02-10T06:18:30;102611.64;;;-8.20;62.58
42067;BME280;27734;47.028;28.820;2023-02-10T06:21:02;102609.95;;;-8.08;63.08
42067;BME280;27734;47.028;28.820;2023-02-10T06:23:35;102597.17;;;-8.02;61.73
42067;BME280;27734;47.028;28.820;2023-02-10T06:26:07;102592.66;;;-7.92;62.72
42067;BME280;27734;47.028;28.820;2023-02-10T06:28:39;102591.61;;;-7.75;63.46
42067;BME280;27734;47.028;28.820;2023-02-10T06:31:14;102593.13;;;-7.65;62.06
42067;BME280;27734;47.028;28.820;2023-02-10T06:33:47;102588.16;;;-7.57;62.61
42067;BME280;27734;47.028;28.820;2023-02-10T06:36:19;102587.55;;;-7.44;63.04
42067;BME280;27734;47.028;28.820;2023-02-10T06:38:52;102579.77;;;-7.32;63.34
42067;BME280;27734;47.028;28.820;2023-02-10T06:41:24;102578.02;;;-7.20;63.23
42067;BME280;27734;47.028;28.820;2023-02-10T06:43:57;102569.52;;;-7.08;62.88
42067;BME280;27734;47.028;28.820;2023-02-10T06:46:29;102575.42;;;-6.96;63.36
42067;BME280;27734;47.028;28.820;2023-02-10T06:49:04;102564.52;;;-6.82;63.18
42067;BME280;27734;47.028;28.820;2023-02-10T06:51:41;102564.39;;;-6.71;62.52
42067;BME280;27734;47.028;28.820;2023-02-10T06:54:18;102564.92;;;-6.61;62.56
42067;BME280;27734;47.028;28.820;2023-02-10T06:56:55;102563.13;;;-6.49;62.55
42067;BME280;27734;47.028;28.820;2023-02-10T06:59:28;102566.73;;;-6.41;63.48
42067;BME280;27734;47.028;28.820;2023-02-10T07:02:00;102565.43;;;-6.32;63.48
42067;BME280;27734;47.028;28.820;2023-02-10T07:04:33;102557.58;;;-6.21;63.60
42067;BME280;27734;47.028;28.820;2023-02-10T07:07:06;102563.23;;;-6.10;62.56
42067;BME280;27734;47.028;28.820;2023-02-10T07:09:49;102560.76;;;-6.03;62.54
42067;BME280;27734;47.028;28.820;2023-02-10T07:12:23;102561.59;;;-5.97;63.37
42067;BME280;27734;47.028;28.820;2023-02-10T07:14:58;102567.28;;;-5.92;63.33
42067;BME280;27734;47.028;28.820;2023-02-10T07:17:30;102564.64;;;-5.87;63.21
42067;BME280;27734;47.028;28.820;2023-02-10T07:20:03;102565.46;;;-5.81;62.97
42067;BME280;27734;47.028;28.820;2023-02-10T07:22:36;102558.61;;;-5.74;63.00
42067;BME280;27734;47.028;28.820;2023-02-10T07:25:08;102552.16;;;-5.65;63.53
42067;BME280;27734;47.028;28.820;2023-02-10T07:27:41;102548.87;;;-5.51;63.03
42067;BME280;27734;47.028;28.820;2023-02-10T07:30:15;102552.31;;;-5.38;62.98
42067;BME280;27734;47.028;28.820;2023-02-10T07:32:47;102544.44;;;-5.27;63.04
42067;BME280;27734;47.028;28.820;2023-02-10T07:35:21;102537.02;;;-5.18;63.54
42067;BME280;27734;47.028;28.820;2023-02-10T07:37:53;102547.77;;;-5.08;62.75
42067;BME280;27734;47.028;28.820;2023-02-10T07:40:26;102544.75;;;-4.98;63.10
42067;BME280;27734;47.028;28.820;2023-02-10T07:43:03;102539.38;;;-4.87;62.76
42067;BME280;27734;47.028;28.820;2023-02-10T07:45:45;102536.44;;;-4.70;62.45
42067;BME280;27734;47.028;28.820;2023-02-10T07:48:18;102525.20;;;-4.57;62.84
42067;BME280;27734;47.028;28.820;2023-02-10T07:50:51;102527.88;;;-4.43;62.73
42067;BME280;27734;47.028;28.820;2023-02-10T07:53:24;102529.31;;;-4.25;63.46
42067;BME280;27734;47.028;28.820;2023-02-10T07:56:03;102526.33;;;-4.08;63.58
42067;BME280;27734;47.028;28.820;2023-02-10T07:58:37;102519.11;;;-3.90;63.30
42067;BME280;27734;47.028;28.820;2023-02-10T08:01:17;102519.19;;;-3.76;63.48
42067;BME280;27734;47.028;28.820;2023-02-10T08:03:50;102507.17;;;-3.63;63.12
42067;BME280;27734;47.028;28.820;2023-02-10T08:06:27;102500.99;;;-3.50;62.52
42067;BME280;27734;47.028;28.820;2023-02-10T08:09:01;102508.74;;;-3.36;62.75
42067;BME280;27734;47.028;28.820;2023-02-10T08:11:35;102501.27;;;-3.20;62.38
42067;BME280;27734;47.028;28.820;2023-02-10T08:14:10;102495.97;;;-3.07;63.00
42067;BME280;27734;47.028;28.820;2023-02-10T08:16:42;102486.47;;;-2.94;62.74
42067;BME280;27734;47.028;28.820;2023-02-10T08:19:23;102482.09;;;-2.80;62.58
42067;BME280;27734;47.028;28.820;2023-02-10T08:21:56;102484.48;;;-2.67;62.08
42067;BME280;27734;47.028;28.820;2023-02-10T08:24:32;102494.02;;;-2.59;62.00
42067;BME280;27734;47.028;28.820;2023-02-10T08:27:07;102497.52;;;-2.51;61.99
42067;BME280;27734;47.028;28.820;2023-02-10T08:29:43;102492.75;;;-2.41;62.94
42067;BME280;27734;47.028;28.820;2023-02-10T08:32:16;102483.16;;;-2.28;61.71
42067;BME280;27734;47.028;28.820;2023-02-10T08:34:50;102488.14;;;-2.15;61.29
42067;BME280;27734;47.028;28.820;2023-02-10T08:37:24;102484.22;;;-2.04;61.00
42067;BME280;27734;47.028;28.820;2023-02-10T08:39:56;102482.73;;;-1.88;61.66
42067;BME280;27734;47.028;28.820;2023-02-10T08:42:31;102485.05;;;-1.68;62.64
42067;BME280;27734;47.028;28.820;2023-02-10T08:45:04;102484.98;;;-1.46;62.20
42067;BME280;27734;47.028;28.820;2023-02-10T08:47:37;102476.97;;;-1.26;62.04
42067;BME280;27734;47.028;28.820;2023-02-10T08:50:11;102477.23;;;-1.09;61.92
42067;BME280;27734;47.028;28.820;2023-02-10T08:52:44;102475.07;;;-0.89;60.28
42067;BME280;27734;47.028;28.820;2023-02-10T08:55:20;102476.42;;;-0.70;60.44
42067;BME280;27734;47.028;28.820;2023-02-10T08:57:54;102474.80;;;-0.53;61.28
42067;BME280;27734;47.028;28.820;2023-02-10T09:00:31;102481.48;;;-0.40;61.16
42067;BME280;27734;47.028;28.820;2023-02-10T09:03:04;102481.18;;;-0.27;60.32
42067;BME280;27734;47.028;28.820;2023-02-10T09:05:46;102468.00;;;-0.14;59.98
42067;BME280;27734;47.028;28.820;2023-02-10T09:08:19;102469.34;;;-0.02;60.61
42067;BME280;27734;47.028;28.820;2023-02-10T09:10:52;102469.01;;;0.11;59.93
42067;BME280;27734;47.028;28.820;2023-02-10T09:13:27;102468.09;;;0.27;60.14
42067;BME280;27734;47.028;28.820;2023-02-10T09:16:02;102460.58;;;0.37;59.43
42067;BME280;27734;47.028;28.820;2023-02-10T09:18:40;102461.33;;;0.52;59.54
42067;BME280;27734;47.028;28.820;2023-02-10T09:21:16;102460.05;;;0.64;59.37
42067;BME280;27734;47.028;28.820;2023-02-10T09:23:50;102455.58;;;0.79;59.54
42067;BME280;27734;47.028;28.820;2023-02-10T09:26:23;102453.55;;;0.93;60.01
42067;BME280;27734;47.028;28.820;2023-02-10T09:28:58;102447.67;;;1.02;58.33
42067;BME280;27734;47.028;28.820;2023-02-10T09:31:32;102440.88;;;1.12;58.40
42067;BME280;27734;47.028;28.820;2023-02-10T09:34:05;102435.61;;;1.19;58.38
42067;BME280;27734;47.028;28.820;2023-02-10T09:36:39;102432.46;;;1.30;58.25
42067;BME280;27734;47.028;28.820;2023-02-10T09:39:22;102425.97;;;1.42;58.36
42067;BME280;27734;47.028;28.820;2023-02-10T09:42:06;102422.38;;;1.58;58.98
42067;BME280;27734;47.028;28.820;2023-02-10T09:44:47;102422.70;;;1.70;58.37
42067;BME280;27734;47.028;28.820;2023-02-10T09:47:43;102411.00;;;1.82;57.32
42067;BME280;27734;47.028;28.820;2023-02-10T09:50:46;102399.14;;;1.93;58.36
42067;BME280;27734;47.028;28.820;2023-02-10T09:53:25;102396.14;;;2.06;56.63
42067;BME280;27734;47.028;28.820;2023-02-10T09:56:02;102390.95;;;2.14;57.91
42067;BME280;27734;47.028;28.820;2023-02-10T09:58:42;102394.61;;;2.25;57.90
42067;BME280;27734;47.028;28.820;2023-02-10T10:01:24;102390.48;;;2.36;57.87
42067;BME280;27734;47.028;28.820;2023-02-10T10:04:07;102394.74;;;2.44;57.77
42067;BME280;27734;47.028;28.820;2023-02-10T10:06:50;102387.57;;;2.50;57.20
42067;BME280;27734;47.028;28.820;2023-02-10T10:09:30;102384.23;;;2.60;57.50
42067;BME280;27734;47.028;28.820;2023-02-10T10:12:13;102374.88;;;2.71;56.51
42067;BME280;27734;47.028;28.820;2023-02-10T10:14:53;102375.33;;;2.76;56.71
42067;BME280;27734;47.028;28.820;2023-02-10T10:17:47;102368.29;;;2.83;57.11
42067;BME280;27734;47.028;28.820;2023-02-10T10:20:43;102375.02;;;2.81;56.73
42067;BME280;27734;47.028;28.820;2023-02-10T10:23:29;102375.66;;;2.70;56.37
42067;BME280;27734;47.028;28.820;2023-02-10T10:26:04;102369.09;;;2.74;55.60
42067;BME280;27734;47.028;28.820;2023-02-10T10:28:52;102367.84;;;2.79;55.88
42067;BME280;27734;47.028;28.820;2023-02-10T10:31:32;102361.59;;;2.85;56.13
42067;BME280;27734;47.028;28.820;2023-02-10T10:34:12;102359.16;;;2.87;55.96
42067;BME280;27734;47.028;28.820;2023-02-10T10:36:48;102346.48;;;2.90;55.48
42067;BME280;27734;47.028;28.820;2023-02-10T10:39:26;102345.55;;;2.90;55.61
42067;BME280;27734;47.028;28.820;2023-02-10T10:42:16;102338.20;;;2.94;54.81
42067;BME280;27734;47.028;28.820;2023-02-10T10:44:53;102336.99;;;2.99;55.83
42067;BME280;27734;47.028;28.820;2023-02-10T10:47:39;102334.69;;;3.02;54.47
42067;BME280;27734;47.028;28.820;2023-02-10T10:50:17;102331.59;;;3.06;54.41
42067;BME280;27734;47.028;28.820;2023-02-10T10:52:53;102332.54;;;3.07;54.64
42067;BME280;27734;47.028;28.820;2023-02-10T10:55:31;102328.25;;;3.08;53.35
42067;BME280;27734;47.028;28.820;2023-02-10T11:01:36;102322.45;;;3.10;52.87
42067;BME280;27734;47.028;28.820;2023-02-10T11:04:18;102322.19;;;2.98;53.37
42067;BME280;27734;47.028;28.820;2023-02-10T11:06:57;102324.05;;;2.91;52.97
42067;BME280;27734;47.028;28.820;2023-02-10T11:09:38;102325.09;;;2.93;54.24
42067;BME280;27734;47.028;28.820;2023-02-10T11:12:23;102321.43;;;2.99;53.48
42067;BME280;27734;47.028;28.820;2023-02-10T11:14:56;102318.20;;;3.02;50.16
42067;BME280;27734;47.028;28.820;2023-02-10T11:17:32;102314.84;;;3.03;52.87
42067;BME280;27734;47.028;28.820;2023-02-10T11:20:24;102314.98;;;3.04;53.00
42067;BME280;27734;47.028;28.820;2023-02-10T11:23:02;102310.56;;;3.03;52.31
42067;BME280;27734;47.028;28.820;2023-02-10T11:25:38;102303.42;;;3.01;52.81
42067;BME280;27734;47.028;28.820;2023-02-10T11:28:19;102297.45;;;3.02;52.94
42067;BME280;27734;47.028;28.820;2023-02-10T11:30:58;102296.08;;;3.05;53.24
42067;BME280;27734;47.028;28.820;2023-02-10T11:33:34;102295.58;;;3.10;53.17
42067;BME280;27734;47.028;28.820;2023-02-10T11:36:10;102297.41;;;3.11;53.00
42067;BME280;27734;47.028;28.820;2023-02-10T11:38:45;102289.02;;;3.13;52.69
42067;BME280;27734;47.028;28.820;2023-02-10T11:41:31;102286.83;;;3.18;52.57
42067;BME280;27734;47.028;28.820;2023-02-10T11:44:25;102284.09;;;3.16;51.31
42067;BME280;27734;47.028;28.820;2023-02-10T11:47:02;102275.26;;;3.14;51.93
42067;BME280;27734;47.028;28.820;2023-02-10T11:49:41;102273.60;;;3.15;51.19
42067;BME280;27734;47.028;28.820;2023-02-10T11:52:17;102267.01;;;3.18;51.73
42067;BME280;27734;47.028;28.820;2023-02-10T11:54:53;102269.45;;;3.17;51.33
42067;BME280;27734;47.028;28.820;2023-02-10T11:57:41;102269.03;;;3.12;50.85
42067;BME280;27734;47.028;28.820;2023-02-10T12:00:41;102269.78;;;3.11;51.35
42067;BME280;27734;47.028;28.820;2023-02-10T12:03:35;102262.29;;;3.14;51.02
42067;BME280;27734;47.028;28.820;2023-02-10T12:06:20;102271.77;;;3.14;50.66
42067;BME280;27734;47.028;28.820;2023-02-10T12:09:00;102268.41;;;3.15;50.09
42067;BME280;27734;47.028;28.820;2023-02-10T12:11:42;102269.45;;;3.17;49.79
42067;BME280;27734;47.028;28.820;2023-02-10T12:14:47;102268.52;;;3.16;50.60
42067;BME280;27734;47.028;28.820;2023-02-10T12:17:36;102262.29;;;3.14;49.48
42067;BME280;27734;47.028;28.820;2023-02-10T12:20:26;102265.03;;;3.16;50.23
42067;BME280;27734;47.028;28.820;2023-02-10T12:23:22;102263.84;;;3.12;50.31
42067;BME280;27734;47.028;28.820;2023-02-10T12:26:04;102267.98;;;3.10;50.60
42067;BME280;27734;47.028;28.820;2023-02-10T12:28:48;102262.94;;;3.12;50.19
42067;BME280;27734;47.028;28.820;2023-02-10T12:31:31;102254.36;;;3.13;50.17
42067;BME280;27734;47.028;28.820;2023-02-10T12:34:25;102261.53;;;3.15;50.55
42067;BME280;27734;47.028;28.820;2023-02-10T12:37:10;102267.77;;;3.17;50.79
42067;BME280;27734;47.028;28.820;2023-02-10T12:39:58;102259.84;;;3.16;50.88
42067;BME280;27734;47.028;28.820;2023-02-10T12:42:41;102264.13;;;3.15;50.75
42067;BME280;27734;47.028;28.820;2023-02-10T12:45:25;102265.03;;;3.16;50.26
42067;BME280;27734;47.028;28.820;2023-02-10T12:48:21;102257.39;;;3.17;50.42
42067;BME280;27734;47.028;28.820;2023-02-10T12:54:11;102267.48;;;3.14;50.39
42067;BME280;27734;47.028;28.820;2023-02-10T12:56:49;102269.03;;;3.12;50.06
42067;BME280;27734;47.028;28.820;2023-02-10T12:59:27;102263.41;;;3.08;50.78
42067;BME280;27734;47.028;28.820;2023-02-10T13:02:10;102267.55;;;3.05;47.84
42067;BME280;27734;47.028;28.820;2023-02-10T13:04:49;102279.29;;;3.02;49.62
42067;BME280;27734;47.028;28.820;2023-02-10T13:07:31;102272.01;;;2.98;50.11
42067;BME280;27734;47.028;28.820;2023-02-10T13:10:22;102270.46;;;3.00;49.61
42067;BME280;27734;47.028;28.820;2023-02-10T13:13:00;102265.56;;;3.03;49.16
42067;BME280;27734;47.028;28.820;2023-02-10T13:15:40;102256.23;;;3.05;49.29
42067;BME280;27734;47.028;28.820;2023-02-10T13:18:23;102256.38;;;3.06;48.59
42067;BME280;27734;47.028;28.820;2023-02-10T13:21:13;102250.14;;;3.04;49.21
42067;BME280;27734;47.028;28.820;2023-02-10T13:23:56;102250.00;;;3.03;48.37
42067;BME280;27734;47.028;28.820;2023-02-10T13:26:46;102245.58;;;3.02;49.43
42067;BME280;27734;47.028;28.820;2023-02-10T13:29:34;102246.08;;;2.98;48.83
42067;BME280;27734;47.028;28.820;2023-02-10T13:32:41;102247.59;;;2.96;49.20
42067;BME280;27734;47.028;28.820;2023-02-10T13:35:18;102244.70;;;2.93;48.58
42067;BME280;27734;47.028;28.820;2023-02-10T13:37:57;102239.38;;;2.91;48.52
42067;BME280;27734;47.028;28.820;2023-02-10T13:40:45;102251.59;;;2.92;49.40
42067;BME280;27734;47.028;28.820;2023-02-10T13:43:28;102239.52;;;2.93;48.52